Time;durP1;ratioP1;P1;durP2;ratioP2;P2;SDS_P1;SDS_P2;PMS_P1;PMS_P2;Temp;Humidity;BMP_temperature;BMP_pressure;BME280_temperature;BME280_humidity;BME280_pressure;Samples;Min_cycle;Max_cycle;Signal;HPM_P1;HPM_P2
2023/05/04 00:01:02;;;;;;;;;;;7.30;99.90;;;;;;5033725;28;19939;-55
2023/05/04 00:03:29;;;;;;;;;;;7.30;99.90;;;;;;5034781;28;19933;-56
2023/05/04 00:05:55;;;;;;;;;;;7.20;99.90;;;;;;5034569;28;19979;-56
2023/05/04 00:08:22;;;;;;;;;;;7.30;99.90;;;;;;5034805;28;19931;-58
2023/05/04 00:10:49;;;;;;;;;;;7.20;99.90;;;;;;5033904;28;19975;-51
2023/05/04 00:13:15;;;;;;;;;;;7.20;99.90;;;;;;5032887;28;19955;-57
2023/05/04 00:15:42;;;;;;;;;;;7.20;99.90;;;;;;5033832;28;20346;-57
2023/05/04 00:18:10;;;;;;;;;;;7.20;99.90;;;;;;5034241;28;19984;-57
2023/05/04 00:20:37;;;;;;;;;;;7.20;99.90;;;;;;5034423;28;19978;-50
2023/05/04 00:23:03;;;;;;;;;;;7.20;99.90;;;;;;5034042;28;20426;-48
2023/05/04 00:25:30;;;;;;;;;;;7.10;99.90;;;;;;5035274;28;19981;-55
2023/05/04 00:27:57;;;;;;;;;;;7.10;99.90;;;;;;5033720;28;19937;-55
2023/05/04 00:30:26;;;;;;;;;;;7.10;99.90;;;;;;5033887;28;19993;-55
2023/05/04 00:32:53;;;;;;;;;;;7.10;99.90;;;;;;5033955;28;19953;-53
2023/05/04 00:35:21;;;;;;;;;;;7.10;99.90;;;;;;5033554;28;20412;-55
2023/05/04 00:37:48;;;;;;;;;;;7.10;99.90;;;;;;5034863;28;19979;-49
2023/05/04 00:40:14;;;;;;;;;;;7.00;99.90;;;;;;5034778;28;20449;-56
2023/05/04 00:42:41;;;;;;;;;;;7.00;99.90;;;;;;5035520;28;19925;-56
2023/05/04 00:45:08;;;;;;;;;;;7.00;99.90;;;;;;5033664;28;19982;-56
2023/05/04 00:47:34;;;;;;;;;;;6.90;99.90;;;;;;5035702;28;20269;-57
2023/05/04 00:50:01;;;;;;;;;;;6.90;99.90;;;;;;5034323;28;19984;-57
2023/05/04 00:52:29;;;;;;;;;;;6.90;99.90;;;;;;5033264;28;20368;-57
2023/05/04 00:54:56;;;;;;;;;;;6.90;99.90;;;;;;5034153;28;20384;-57
2023/05/04 00:57:22;;;;;;;;;;;6.90;99.90;;;;;;5033824;28;19979;-56
2023/05/04 00:59:49;;;;;;;;;;;6.90;99.90;;;;;;5034867;28;19983;-59
2023/05/04 01:02:15;;;;;;;;;;;6.80;99.90;;;;;;5035049;28;19986;-55
2023/05/04 01:04:42;;;;;;;;;;;6.80;99.90;;;;;;5033383;28;20026;-54
2023/05/04 01:07:11;;;;;;;;;;;6.80;99.90;;;;;;5032884;28;20369;-57
2023/05/04 01:09:40;;;;;;;;;;;6.80;99.90;;;;;;5033426;28;20030;-58
2023/05/04 01:12:07;;;;;;;;;;;6.80;99.90;;;;;;5033384;28;19936;-50
2023/05/04 01:14:34;;;;;;;;;;;6.80;99.90;;;;;;5033293;28;20433;-48
2023/05/04 01:17:02;;;;;;;;;;;6.70;99.90;;;;;;5034262;28;20377;-57
2023/05/04 01:19:29;;;;;;;;;;;6.70;99.90;;;;;;5033913;28;20387;-59
2023/05/04 01:21:57;;;;;;;;;;;6.70;99.90;;;;;;5033604;28;19997;-58
2023/05/04 01:24:24;;;;;;;;;;;6.70;99.90;;;;;;5033802;28;19932;-53
2023/05/04 01:26:52;;;;;;;;;;;6.60;99.90;;;;;;5033349;28;19984;-55
2023/05/04 01:29:19;;;;;;;;;;;6.70;99.90;;;;;;5033386;28;19932;-57
2023/05/04 01:31:46;;;;;;;;;;;6.70;99.90;;;;;;5034019;28;19965;-54
2023/05/04 01:34:12;;;;;;;;;;;6.70;99.90;;;;;;5034446;28;19963;-55
2023/05/04 01:36:39;;;;;;;;;;;6.60;99.90;;;;;;5033750;28;19932;-57
2023/05/04 01:39:08;;;;;;;;;;;6.70;99.90;;;;;;5032690;28;20419;-58
2023/05/04 01:41:35;;;;;;;;;;;6.60;99.90;;;;;;5035187;28;20466;-54
2023/05/04 01:44:02;;;;;;;;;;;6.60;99.90;;;;;;5033591;28;19946;-56
2023/05/04 01:46:28;;;;;;;;;;;6.60;99.90;;;;;;5033414;28;19921;-57
2023/05/04 01:48:55;;;;;;;;;;;6.60;99.90;;;;;;5033180;28;19931;-56
2023/05/04 01:51:22;;;;;;;;;;;6.60;99.90;;;;;;5034088;28;19947;-51
2023/05/04 01:53:48;;;;;;;;;;;6.60;99.90;;;;;;5032708;28;20495;-55
2023/05/04 01:56:16;;;;;;;;;;;6.60;99.90;;;;;;5032436;28;19970;-57
2023/05/04 01:58:43;;;;;;;;;;;6.60;99.90;;;;;;5033139;28;20030;-57
2023/05/04 02:01:09;;;;;;;;;;;6.60;99.90;;;;;;5032962;28;19986;-58
2023/05/04 02:03:36;;;;;;;;;;;6.60;99.90;;;;;;5033413;28;20395;-52
2023/05/04 02:06:03;;;;;;;;;;;6.60;99.90;;;;;;5031857;28;19974;-56
2023/05/04 02:08:29;;;;;;;;;;;6.60;99.90;;;;;;5037289;28;20344;-59
2023/05/04 02:10:56;;;;;;;;;;;6.50;99.90;;;;;;5037294;28;19942;-57
2023/05/04 02:13:24;;;;;;;;;;;6.60;99.90;;;;;;5037230;28;20396;-50
2023/05/04 02:15:51;;;;;;;;;;;6.50;99.90;;;;;;5037367;28;20297;-49
2023/05/04 02:18:17;;;;;;;;;;;6.50;99.90;;;;;;5036975;28;19980;-57
2023/05/04 02:20:44;;;;;;;;;;;6.60;99.90;;;;;;5037812;28;19956;-57
2023/05/04 02:23:11;;;;;;;;;;;6.50;99.90;;;;;;5036928;28;20033;-56
2023/05/04 02:25:38;;;;;;;;;;;6.50;99.90;;;;;;5036775;28;19949;-59
2023/05/04 02:28:05;;;;;;;;;;;6.40;99.90;;;;;;5037774;28;19941;-55
2023/05/04 02:30:33;;;;;;;;;;;6.40;99.90;;;;;;5037555;28;19986;-58
2023/05/04 02:33:00;;;;;;;;;;;6.40;99.90;;;;;;5035638;28;19943;-46
2023/05/04 02:35:26;;;;;;;;;;;6.40;99.90;;;;;;5036787;28;20363;-58
2023/05/04 02:37:53;;;;;;;;;;;6.40;99.90;;;;;;5036021;28;19975;-58
2023/05/04 02:40:20;;;;;;;;;;;6.40;99.90;;;;;;5038368;28;19979;-57
2023/05/04 02:42:46;;;;;;;;;;;6.40;99.90;;;;;;5037532;28;20025;-56
2023/05/04 02:45:13;;;;;;;;;;;6.40;99.90;;;;;;5037745;28;20350;-50
2023/05/04 02:47:41;;;;;;;;;;;6.40;99.90;;;;;;5036965;28;20022;-52
2023/05/04 02:50:08;;;;;;;;;;;6.40;99.90;;;;;;5037036;28;19982;-55
2023/05/04 02:52:34;;;;;;;;;;;6.40;99.90;;;;;;5036438;28;20395;-58
2023/05/04 02:55:01;;;;;;;;;;;6.40;99.90;;;;;;5036577;28;19964;-55
2023/05/04 02:57:28;;;;;;;;;;;6.40;99.90;;;;;;5036401;28;19937;-54
2023/05/04 02:59:55;;;;;;;;;;;6.40;99.90;;;;;;5035593;28;20457;-58
2023/05/04 03:02:21;;;;;;;;;;;6.40;99.90;;;;;;5036657;28;19942;-58
2023/05/04 03:04:49;;;;;;;;;;;6.40;99.90;;;;;;5037586;28;19936;-51
2023/05/04 03:07:16;;;;;;;;;;;6.40;99.90;;;;;;5046107;28;19968;-57
2023/05/04 03:09:42;;;;;;;;;;;6.40;99.90;;;;;;5034719;28;19979;-57
2023/05/04 03:12:09;;;;;;;;;;;6.40;99.90;;;;;;5036647;28;20022;-59
2023/05/04 03:14:36;;;;;;;;;;;6.40;99.90;;;;;;5037068;28;19998;-50
2023/05/04 03:17:02;;;;;;;;;;;6.40;99.90;;;;;;5036298;28;19980;-58
2023/05/04 03:19:29;;;;;;;;;;;6.40;99.90;;;;;;5036836;28;19965;-57
2023/05/04 03:21:57;;;;;;;;;;;6.40;99.90;;;;;;5035691;28;19965;-57
2023/05/04 03:24:24;;;;;;;;;;;6.40;99.90;;;;;;5035972;28;19937;-46
2023/05/04 03:26:51;;;;;;;;;;;6.40;99.90;;;;;;5035520;28;19983;-60
2023/05/04 03:29:17;;;;;;;;;;;6.40;99.90;;;;;;5037403;28;20325;-58
2023/05/04 03:31:44;;;;;;;;;;;6.40;99.90;;;;;;5035482;28;20033;-59
2023/05/04 03:34:13;;;;;;;;;;;6.40;99.90;;;;;;5034091;28;20001;-49
2023/05/04 03:36:40;;;;;;;;;;;6.40;99.90;;;;;;5033714;28;19935;-58
2023/05/04 03:39:08;;;;;;;;;;;6.40;99.90;;;;;;5031296;28;19961;-57
2023/05/04 03:41:35;;;;;;;;;;;6.30;99.90;;;;;;5031853;28;20388;-57
2023/05/04 03:44:01;;;;;;;;;;;6.50;99.90;;;;;;5035386;28;19997;-58
2023/05/04 03:46:28;;;;;;;;;;;6.40;99.90;;;;;;5034558;28;20381;-58
2023/05/04 03:48:54;;;;;;;;;;;6.40;99.90;;;;;;5035945;28;20019;-55
2023/05/04 03:51:21;;;;;;;;;;;6.40;99.90;;;;;;5034402;28;20033;-57
2023/05/04 03:53:47;;;;;;;;;;;6.40;99.90;;;;;;5036261;28;20333;-56
2023/05/04 03:56:16;;;;;;;;;;;6.40;99.90;;;;;;5034477;28;19986;-58
2023/05/04 03:58:42;;;;;;;;;;;6.40;99.90;;;;;;5035860;28;20081;-56
2023/05/04 04:01:09;;;;;;;;;;;6.40;99.90;;;;;;5033406;28;19933;-57
2023/05/04 04:03:36;;;;;;;;;;;6.50;99.90;;;;;;5034581;28;19990;-56
2023/05/04 04:06:03;;;;;;;;;;;6.40;99.90;;;;;;5038475;28;19955;-53
2023/05/04 04:08:30;;;;;;;;;;;6.40;99.90;;;;;;5037396;28;19990;-56
2023/05/04 04:10:57;;;;;;;;;;;6.40;99.90;;;;;;5034260;28;19960;-58
2023/05/04 04:13:26;;;;;;;;;;;6.40;99.90;;;;;;5034270;28;19990;-55
2023/05/04 04:15:53;;;;;;;;;;;6.40;99.90;;;;;;5032596;28;20431;-57
2023/05/04 04:18:19;;;;;;;;;;;6.40;99.90;;;;;;5030771;28;19978;-56
2023/05/04 04:20:46;;;;;;;;;;;6.40;99.90;;;;;;5035296;28;20015;-54
2023/05/04 04:23:13;;;;;;;;;;;6.40;99.90;;;;;;5033675;28;19936;-55
2023/05/04 04:25:39;;;;;;;;;;;6.40;99.90;;;;;;5033620;28;20024;-56
2023/05/04 04:28:06;;;;;;;;;;;6.40;99.90;;;;;;5034906;28;20018;-56
2023/05/04 04:30:34;;;;;;;;;;;6.40;99.90;;;;;;5034969;28;19965;-57
2023/05/04 04:33:01;;;;;;;;;;;6.50;99.90;;;;;;5035017;28;19986;-57
2023/05/04 04:35:27;;;;;;;;;;;6.50;99.90;;;;;;5033438;28;19925;-54
2023/05/04 04:37:54;;;;;;;;;;;6.40;99.90;;;;;;5033296;28;19997;-54
2023/05/04 04:40:21;;;;;;;;;;;6.40;99.90;;;;;;5034338;28;19935;-58
2023/05/04 04:42:47;;;;;;;;;;;6.50;99.90;;;;;;5034344;28;19928;-55
2023/05/04 04:45:14;;;;;;;;;;;6.50;99.90;;;;;;5034058;28;20011;-55
2023/05/04 04:47:43;;;;;;;;;;;6.50;99.90;;;;;;5033418;28;19939;-58
2023/05/04 04:50:10;;;;;;;;;;;6.50;99.90;;;;;;5033629;28;19935;-55
2023/05/04 04:52:37;;;;;;;;;;;6.50;99.90;;;;;;5034269;28;19999;-58
2023/05/04 04:55:04;;;;;;;;;;;6.60;99.90;;;;;;5034939;28;19958;-57
2023/05/04 04:57:31;;;;;;;;;;;6.60;99.90;;;;;;5034813;28;20018;-58
2023/05/04 04:59:57;;;;;;;;;;;6.60;99.90;;;;;;5034287;28;19921;-57
2023/05/04 05:02:24;;;;;;;;;;;6.60;99.90;;;;;;5031420;28;19982;-49
2023/05/04 05:04:52;;;;;;;;;;;6.70;99.90;;;;;;5034476;28;20356;-58
2023/05/04 05:07:19;;;;;;;;;;;6.70;99.90;;;;;;5047244;28;20395;-57
2023/05/04 05:09:46;;;;;;;;;;;6.70;99.90;;;;;;5037579;28;20015;-57
2023/05/04 05:12:12;;;;;;;;;;;6.70;99.90;;;;;;5034311;28;20020;-54
2023/05/04 05:14:39;;;;;;;;;;;6.80;99.90;;;;;;5033520;28;20372;-50
2023/05/04 05:17:05;;;;;;;;;;;6.80;99.90;;;;;;5033692;28;19943;-57
2023/05/04 05:19:35;;;;;;;;;;;6.80;99.90;;;;;;5028353;28;20427;-57
2023/05/04 05:22:03;;;;;;;;;;;6.80;99.90;;;;;;5028862;28;20391;-56
2023/05/04 05:24:30;;;;;;;;;;;6.80;99.90;;;;;;5034149;28;20443;-57
2023/05/04 05:26:57;;;;;;;;;;;6.80;99.90;;;;;;5032498;28;19989;-57
2023/05/04 05:29:24;;;;;;;;;;;6.80;99.90;;;;;;5034003;28;20391;-55
2023/05/04 05:31:50;;;;;;;;;;;6.80;99.90;;;;;;5033151;28;19967;-56
2023/05/04 05:34:17;;;;;;;;;;;6.90;99.90;;;;;;5030956;28;19931;-57
2023/05/04 05:36:44;;;;;;;;;;;6.90;99.90;;;;;;5034414;28;19978;-58
2023/05/04 05:39:12;;;;;;;;;;;7.00;99.90;;;;;;5031379;28;19931;-56
2023/05/04 05:41:39;;;;;;;;;;;7.00;99.90;;;;;;5033091;28;19970;-56
2023/05/04 05:44:05;;;;;;;;;;;7.10;99.90;;;;;;5031630;28;20048;-52
2023/05/04 05:46:32;;;;;;;;;;;7.10;99.90;;;;;;5033436;28;19990;-53
2023/05/04 05:48:59;;;;;;;;;;;7.20;99.90;;;;;;5033197;28;19942;-49
2023/05/04 05:51:25;;;;;;;;;;;7.20;99.90;;;;;;5031530;28;20023;-52
2023/05/04 05:53:52;;;;;;;;;;;7.30;99.90;;;;;;5033221;28;20374;-54
2023/05/04 05:56:20;;;;;;;;;;;7.40;99.90;;;;;;5032079;28;20408;-50
2023/05/04 05:58:47;;;;;;;;;;;7.40;99.90;;;;;;5032619;28;19933;-56
2023/05/04 06:01:14;;;;;;;;;;;7.60;99.90;;;;;;5033677;28;19976;-56
2023/05/04 06:03:40;;;;;;;;;;;7.70;99.90;;;;;;5032395;28;19935;-54
2023/05/04 06:06:07;;;;;;;;;;;7.80;99.90;;;;;;5035677;28;19971;-53
2023/05/04 06:08:37;;;;;;;;;;;7.80;99.90;;;;;;5037399;28;20182;-53
2023/05/04 06:11:03;;;;;;;;;;;7.90;99.90;;;;;;5031422;28;20295;-52
2023/05/04 06:13:31;;;;;;;;;;;8.00;99.90;;;;;;5031734;28;19943;-52
2023/05/04 06:15:58;;;;;;;;;;;8.10;99.90;;;;;;5032936;28;19957;-52
2023/05/04 06:18:25;;;;;;;;;;;8.20;99.90;;;;;;5029281;28;20380;-54
2023/05/04 06:20:57;;;;;;;;;;;8.30;99.90;;;;;;5032031;28;19981;-53
2023/05/04 06:23:27;;;;;;;;;;;8.40;99.90;;;;;;5029723;28;19943;-54
2023/05/04 06:25:53;;;;;;;;;;;8.50;99.90;;;;;;5032368;28;20008;-51
2023/05/04 06:28:20;;;;;;;;;;;8.60;99.90;;;;;;5032269;28;19982;-53
2023/05/04 06:30:48;;;;;;;;;;;8.70;99.90;;;;;;5032316;28;19937;-55
2023/05/04 06:33:14;;;;;;;;;;;8.70;99.90;;;;;;5012933;28;20347;-55
2023/05/04 06:35:41;;;;;;;;;;;8.80;99.90;;;;;;5028383;28;19947;-48
2023/05/04 06:38:08;;;;;;;;;;;9.00;99.90;;;;;;5032056;28;19995;-52
2023/05/04 06:40:35;;;;;;;;;;;9.10;99.90;;;;;;5030687;28;19998;-54
2023/05/04 06:43:01;;;;;;;;;;;9.10;99.90;;;;;;5029949;28;19948;-55
2023/05/04 06:45:28;;;;;;;;;;;9.20;99.90;;;;;;5031810;28;19941;-51
2023/05/04 06:47:56;;;;;;;;;;;9.30;99.90;;;;;;5030886;28;20346;-52
2023/05/04 06:50:23;;;;;;;;;;;9.40;99.90;;;;;;5028998;28;20388;-53
2023/05/04 06:52:50;;;;;;;;;;;9.50;99.90;;;;;;5034073;28;19968;-52
2023/05/04 06:55:17;;;;;;;;;;;9.60;99.90;;;;;;5018539;28;19928;-53
2023/05/04 06:57:44;;;;;;;;;;;9.70;99.90;;;;;;5035082;28;20360;-48
2023/05/04 07:00:11;;;;;;;;;;;9.70;99.90;;;;;;5033024;28;19936;-53
2023/05/04 07:02:38;;;;;;;;;;;9.80;99.90;;;;;;5034557;28;19976;-52
2023/05/04 07:05:06;;;;;;;;;;;10.00;99.90;;;;;;5035242;28;19937;-53
2023/05/04 07:07:33;;;;;;;;;;;10.10;99.90;;;;;;5030881;28;19939;-51
2023/05/04 07:10:00;;;;;;;;;;;10.20;99.90;;;;;;5035032;28;19988;-53
2023/05/04 07:12:27;;;;;;;;;;;10.30;99.90;;;;;;5034094;28;19982;-50
2023/05/04 07:14:53;;;;;;;;;;;10.30;99.90;;;;;;5034333;28;20034;-53
2023/05/04 07:17:20;;;;;;;;;;;10.40;99.90;;;;;;5035283;28;19978;-52
2023/05/04 07:19:48;;;;;;;;;;;10.60;99.90;;;;;;5034177;28;19937;-47
2023/05/04 07:22:16;;;;;;;;;;;10.70;99.90;;;;;;5033710;28;19964;-51
2023/05/04 07:24:43;;;;;;;;;;;10.80;99.90;;;;;;5033951;28;20026;-52
2023/05/04 07:27:10;;;;;;;;;;;10.90;99.90;;;;;;5032861;28;19936;-52
2023/05/04 07:29:36;;;;;;;;;;;10.90;99.90;;;;;;5035295;28;19936;-51
2023/05/04 07:32:03;;;;;;;;;;;11.00;99.90;;;;;;5032824;28;20376;-51
2023/05/04 07:34:30;;;;;;;;;;;11.10;99.90;;;;;;5033922;28;19965;-50
2023/05/04 07:36:57;;;;;;;;;;;11.10;99.90;;;;;;5017553;28;19978;-48
2023/05/04 07:39:25;;;;;;;;;;;11.20;99.90;;;;;;5033866;28;19966;-49
2023/05/04 07:41:51;;;;;;;;;;;11.30;99.90;;;;;;5031749;28;20035;-48
2023/05/04 07:44:18;;;;;;;;;;;11.40;99.90;;;;;;5034202;28;19989;-51
2023/05/04 07:46:44;;;;;;;;;;;11.50;99.90;;;;;;5032099;28;19983;-50
2023/05/04 07:49:11;;;;;;;;;;;11.60;99.90;;;;;;5030994;28;20462;-49
2023/05/04 07:51:38;;;;;;;;;;;11.80;99.90;;;;;;5032527;28;20018;-51
2023/05/04 07:54:04;;;;;;;;;;;11.90;99.90;;;;;;5031840;28;19921;-51
2023/05/04 07:56:32;;;;;;;;;;;12.10;99.90;;;;;;5030932;28;20044;-52
2023/05/04 07:58:59;;;;;;;;;;;12.20;99.90;;;;;;5030949;28;19940;-49
2023/05/04 08:01:26;;;;;;;;;;;12.30;99.90;;;;;;5032546;28;19936;-51
2023/05/04 08:03:53;;;;;;;;;;;12.40;99.90;;;;;;5032562;28;19991;-54
2023/05/04 08:06:20;;;;;;;;;;;12.60;99.90;;;;;;5031529;28;20104;-52
2023/05/04 08:08:48;;;;;;;;;;;12.70;99.90;;;;;;5033887;28;20016;-47
2023/05/04 08:11:16;;;;;;;;;;;12.90;99.90;;;;;;5033627;28;19936;-49
2023/05/04 08:13:46;;;;;;;;;;;13.00;99.90;;;;;;5033797;28;19947;-49
2023/05/04 08:16:13;;;;;;;;;;;13.20;99.90;;;;;;5030390;28;19955;-50
2023/05/04 08:18:39;;;;;;;;;;;13.30;99.90;;;;;;5029448;28;20014;-54
2023/05/04 08:21:06;;;;;;;;;;;13.40;99.90;;;;;;5031631;28;19979;-50
2023/05/04 08:23:33;;;;;;;;;;;13.60;99.90;;;;;;5032775;28;19987;-48
2023/05/04 08:26:01;;;;;;;;;;;13.60;99.90;;;;;;5031691;28;20320;-45
2023/05/04 08:28:27;;;;;;;;;;;13.70;99.60;;;;;;5031410;28;19985;-47
2023/05/04 08:30:56;;;;;;;;;;;13.70;99.90;;;;;;5030376;28;20054;-45
2023/05/04 08:33:22;;;;;;;;;;;13.90;99.90;;;;;;5030966;28;19981;-45
2023/05/04 08:35:49;;;;;;;;;;;13.90;99.90;;;;;;5029793;28;19954;-47
2023/05/04 08:38:16;;;;;;;;;;;14.10;98.80;;;;;;5031215;28;19936;-47
2023/05/04 08:40:42;;;;;;;;;;;14.10;98.80;;;;;;5032736;28;19957;-40
2023/05/04 08:43:09;;;;;;;;;;;14.10;98.90;;;;;;5030338;28;19936;-47
2023/05/04 08:45:37;;;;;;;;;;;14.20;99.60;;;;;;5028916;28;19962;-44
2023/05/04 08:48:05;;;;;;;;;;;14.30;99.40;;;;;;5031697;28;19983;-47
2023/05/04 08:50:32;;;;;;;;;;;14.50;98.90;;;;;;5031603;28;20323;-48
2023/05/04 08:53:01;;;;;;;;;;;14.60;97.80;;;;;;5030466;28;20349;-44
2023/05/04 08:55:28;;;;;;;;;;;14.70;97.20;;;;;;5031563;28;20002;-43
2023/05/04 08:57:55;;;;;;;;;;;14.70;97.50;;;;;;5030581;28;19978;-45
2023/05/04 09:00:21;;;;;;;;;;;14.80;97.50;;;;;;5030357;28;19985;-46
2023/05/04 09:02:48;;;;;;;;;;;15.00;97.40;;;;;;5031013;28;19947;-45
2023/05/04 09:05:16;;;;;;;;;;;15.10;97.70;;;;;;5025131;28;19943;-47
2023/05/04 09:07:43;;;;;;;;;;;15.40;98.20;;;;;;5031180;28;19985;-45
2023/05/04 09:10:09;;;;;;;;;;;15.60;96.50;;;;;;5031167;28;20360;-47
2023/05/04 09:12:37;;;;;;;;;;;15.80;96.50;;;;;;5032206;28;19935;-43
2023/05/04 09:15:14;;;;;;;;;;;15.90;96.20;;;;;;5030686;28;19948;-45
2023/05/04 09:17:40;;;;;;;;;;;16.10;94.10;;;;;;5027490;28;19977;-43
2023/05/04 09:20:08;;;;;;;;;;;16.20;94.70;;;;;;5029834;28;20035;-48
2023/05/04 09:22:36;;;;;;;;;;;16.20;94.10;;;;;;5031837;28;19937;-47
2023/05/04 09:25:07;;;;;;;;;;;16.30;94.80;;;;;;5030501;28;19943;-49
2023/05/04 09:27:34;;;;;;;;;;;16.50;93.90;;;;;;5031262;28;20024;-47
2023/05/04 09:30:01;;;;;;;;;;;16.70;93.50;;;;;;5031139;28;20452;-49
2023/05/04 09:32:28;;;;;;;;;;;16.80;94.30;;;;;;5030995;28;19936;-49
2023/05/04 09:34:55;;;;;;;;;;;17.10;94.80;;;;;;5031536;28;19961;-50
2023/05/04 09:37:22;;;;;;;;;;;17.40;93.10;;;;;;5030135;28;19949;-44
2023/05/04 09:39:54;;;;;;;;;;;17.60;94.00;;;;;;5032290;28;19937;-47
2023/05/04 09:42:21;;;;;;;;;;;17.80;93.70;;;;;;5031764;28;19936;-49
2023/05/04 09:44:57;;;;;;;;;;;17.90;93.10;;;;;;5029980;28;19999;-48
2023/05/04 09:47:30;;;;;;;;;;;18.00;91.00;;;;;;5045490;28;19944;-44
2023/05/04 09:49:57;;;;;;;;;;;18.00;91.80;;;;;;5029040;28;20033;-47
2023/05/04 09:52:24;;;;;;;;;;;18.20;89.70;;;;;;5029314;28;20634;-49
2023/05/04 09:54:50;;;;;;;;;;;18.20;90.00;;;;;;5030151;28;19921;-48
2023/05/04 09:57:19;;;;;;;;;;;18.40;90.00;;;;;;5018852;28;20001;-48
2023/05/04 09:59:46;;;;;;;;;;;18.40;88.90;;;;;;5030771;28;19947;-47
2023/05/04 10:02:13;;;;;;;;;;;18.50;86.50;;;;;;5032497;28;19945;-48
2023/05/04 10:04:40;;;;;;;;;;;18.60;87.20;;;;;;5031560;28;20349;-45
2023/05/04 10:07:07;;;;;;;;;;;18.70;85.80;;;;;;5030062;28;19999;-45
2023/05/04 10:09:33;;;;;;;;;;;18.70;82.70;;;;;;5030330;28;20432;-46
2023/05/04 10:12:01;;;;;;;;;;;18.70;81.60;;;;;;5029946;28;19963;-45
2023/05/04 10:14:31;;;;;;;;;;;18.70;82.70;;;;;;5031932;28;19988;-48
2023/05/04 10:17:01;;;;;;;;;;;18.80;81.50;;;;;;5030800;28;19955;-44
2023/05/04 10:19:35;;;;;;;;;;;18.90;82.70;;;;;;5029561;28;19981;-43
2023/05/04 10:22:07;;;;;;;;;;;18.90;80.80;;;;;;5022565;28;20335;-45
2023/05/04 10:24:58;;;;;;;;;;;19.00;81.30;;;;;;5021334;28;19977;-43
2023/05/04 10:27:34;;;;;;;;;;;19.10;80.70;;;;;;5011303;28;19945;-51
2023/05/04 10:30:03;;;;;;;;;;;19.10;78.20;;;;;;5035102;28;20009;-46
2023/05/04 10:32:30;;;;;;;;;;;19.20;81.30;;;;;;5033755;28;19939;-46
2023/05/04 10:35:05;;;;;;;;;;;19.40;80.40;;;;;;5030443;28;19955;-46
2023/05/04 10:37:32;;;;;;;;;;;19.50;79.00;;;;;;5033682;28;20827;-49
2023/05/04 10:39:58;;;;;;;;;;;19.70;79.70;;;;;;5028066;28;19936;-49
2023/05/04 10:42:25;;;;;;;;;;;19.80;75.80;;;;;;5030540;28;20371;-48
2023/05/04 10:44:53;;;;;;;;;;;19.90;74.20;;;;;;5020866;28;20530;-45
2023/05/04 10:47:29;;;;;;;;;;;20.00;73.50;;;;;;5034741;28;19940;-47
2023/05/04 10:50:03;;;;;;;;;;;20.00;70.90;;;;;;5033740;28;19932;-51
2023/05/04 10:52:30;;;;;;;;;;;19.90;73.10;;;;;;5033685;28;19939;-45
2023/05/04 10:55:00;;;;;;;;;;;20.10;74.20;;;;;;5029663;28;19980;-46
2023/05/04 10:57:27;;;;;;;;;;;20.00;67.60;;;;;;5031689;28;19921;-43
2023/05/04 10:59:54;;;;;;;;;;;20.00;70.80;;;;;;5027125;28;19999;-45
2023/05/04 11:02:22;;;;;;;;;;;20.00;74.20;;;;;;5026358;28;19939;-45
2023/05/04 11:04:59;;;;;;;;;;;20.20;71.70;;;;;;5027439;28;19936;-42
2023/05/04 11:07:32;;;;;;;;;;;20.40;71.30;;;;;;5034202;28;19936;-47
2023/05/04 11:09:59;;;;;;;;;;;20.50;70.40;;;;;;5032394;28;19935;-44
2023/05/04 11:12:25;;;;;;;;;;;20.50;69.70;;;;;;5028776;28;20382;-46
2023/05/04 11:14:52;;;;;;;;;;;20.60;70.80;;;;;;5032938;28;19964;-45
2023/05/04 11:17:18;;;;;;;;;;;20.70;68.50;;;;;;5033023;28;20030;-46
2023/05/04 11:19:49;;;;;;;;;;;20.70;71.50;;;;;;5033835;28;19990;-44
2023/05/04 11:22:17;;;;;;;;;;;20.70;69.40;;;;;;5048241;28;20372;-46
2023/05/04 11:24:44;;;;;;;;;;;20.80;70.40;;;;;;5035111;28;20498;-44
2023/05/04 11:27:20;;;;;;;;;;;20.90;69.40;;;;;;5033698;28;19935;-44
2023/05/04 11:29:52;;;;;;;;;;;21.00;69.40;;;;;;5031013;28;19938;-46
2023/05/04 11:32:20;;;;;;;;;;;21.20;67.90;;;;;;5031153;28;20290;-43
2023/05/04 11:34:46;;;;;;;;;;;21.20;66.40;;;;;;5034900;28;19963;-44
2023/05/04 11:37:13;;;;;;;;;;;21.30;68.40;;;;;;5023697;28;19958;-44
2023/05/04 11:39:41;;;;;;;;;;;21.40;66.40;;;;;;5034014;28;20383;-47
2023/05/04 11:42:08;;;;;;;;;;;21.40;65.50;;;;;;5033769;28;20328;-48
2023/05/04 11:44:35;;;;;;;;;;;21.30;65.30;;;;;;5032798;28;19937;-44
2023/05/04 11:47:01;;;;;;;;;;;21.40;66.50;;;;;;5032857;28;20362;-48
2023/05/04 11:49:29;;;;;;;;;;;21.50;66.00;;;;;;5033439;28;19935;-46
2023/05/04 11:52:05;;;;;;;;;;;21.70;66.40;;;;;;5031384;28;20028;-45
2023/05/04 11:54:32;;;;;;;;;;;22.00;66.20;;;;;;5032988;28;19935;-47
2023/05/04 11:57:01;;;;;;;;;;;22.10;66.30;;;;;;5033461;28;20005;-46
2023/05/04 11:59:28;;;;;;;;;;;22.20;63.40;;;;;;5033584;28;19994;-46
2023/05/04 12:01:55;;;;;;;;;;;22.20;65.30;;;;;;5033189;28;19999;-43
2023/05/04 12:04:22;;;;;;;;;;;22.20;63.90;;;;;;5033507;28;20356;-44
2023/05/04 12:06:49;;;;;;;;;;;22.30;64.20;;;;;;5033408;28;19935;-46
2023/05/04 12:09:16;;;;;;;;;;;22.40;62.70;;;;;;5033565;28;19947;-45
2023/05/04 12:11:42;;;;;;;;;;;22.40;61.90;;;;;;5029793;28;19938;-43
2023/05/04 12:14:12;;;;;;;;;;;22.40;62.80;;;;;;5027483;28;20032;-45
2023/05/04 12:16:41;;;;;;;;;;;22.40;62.30;;;;;;5021112;28;19929;-46
2023/05/04 12:19:09;;;;;;;;;;;22.50;63.00;;;;;;5031326;28;19935;-48
2023/05/04 12:21:36;;;;;;;;;;;22.40;61.60;;;;;;5030707;28;19936;-46
2023/05/04 12:24:03;;;;;;;;;;;22.50;60.20;;;;;;5031116;28;19947;-48
2023/05/04 12:26:30;;;;;;;;;;;22.40;60.90;;;;;;5033703;28;19998;-45
2023/05/04 12:28:57;;;;;;;;;;;22.40;61.70;;;;;;5026187;28;20021;-43
2023/05/04 12:31:25;;;;;;;;;;;22.50;62.60;;;;;;5026096;28;19998;-43
2023/05/04 12:33:52;;;;;;;;;;;22.60;60.70;;;;;;5029027;28;19953;-47
2023/05/04 12:36:19;;;;;;;;;;;22.60;59.00;;;;;;5029932;28;19983;-43
2023/05/04 12:38:45;;;;;;;;;;;22.70;59.50;;;;;;5028440;28;19940;-43
2023/05/04 12:41:12;;;;;;;;;;;22.70;59.90;;;;;;5029100;28;19933;-42
2023/05/04 12:43:39;;;;;;;;;;;22.80;60.00;;;;;;5031363;28;19949;-46
2023/05/04 12:46:05;;;;;;;;;;;22.90;57.60;;;;;;5031733;28;19975;-45
2023/05/04 12:48:33;;;;;;;;;;;22.90;57.30;;;;;;5032001;28;19921;-46
2023/05/04 12:51:00;;;;;;;;;;;22.80;55.10;;;;;;5031344;28;20083;-45
2023/05/04 12:53:28;;;;;;;;;;;22.70;56.70;;;;;;5032373;28;20395;-42
2023/05/04 12:55:56;;;;;;;;;;;22.80;56.20;;;;;;5031644;28;19943;-46
2023/05/04 12:58:22;;;;;;;;;;;22.80;59.80;;;;;;5030826;28;19951;-44
2023/05/04 13:00:49;;;;;;;;;;;22.90;56.90;;;;;;5029727;28;20449;-44
2023/05/04 13:03:17;;;;;;;;;;;23.00;59.70;;;;;;5031023;28;19939;-46
2023/05/04 13:05:45;;;;;;;;;;;23.10;56.90;;;;;;5031505;28;19938;-48
2023/05/04 13:08:11;;;;;;;;;;;23.20;60.50;;;;;;5030854;28;19943;-41
2023/05/04 13:10:38;;;;;;;;;;;23.30;59.20;;;;;;5032041;28;19998;-47
2023/05/04 13:13:05;;;;;;;;;;;23.40;57.60;;;;;;5031355;28;19974;-45
2023/05/04 13:15:32;;;;;;;;;;;23.20;57.60;;;;;;5031115;28;19938;-46
2023/05/04 13:17:59;;;;;;;;;;;23.20;55.60;;;;;;5031066;28;20048;-48
2023/05/04 13:20:26;;;;;;;;;;;23.20;55.60;;;;;;5033458;28;19940;-46
2023/05/04 13:22:54;;;;;;;;;;;23.30;57.50;;;;;;5035368;28;19937;-43
2023/05/04 13:25:21;;;;;;;;;;;23.30;53.50;;;;;;5031095;28;20340;-44
2023/05/04 13:27:48;;;;;;;;;;;23.20;54.70;;;;;;5029299;28;20328;-44
2023/05/04 13:30:16;;;;;;;;;;;23.20;54.60;;;;;;5029926;28;19975;-43
2023/05/04 13:32:43;;;;;;;;;;;23.20;55.80;;;;;;5031430;28;19951;-48
2023/05/04 13:35:10;;;;;;;;;;;23.30;55.90;;;;;;5028713;28;19955;-48
2023/05/04 13:37:37;;;;;;;;;;;23.40;56.50;;;;;;5029653;28;19955;-41
2023/05/04 13:40:05;;;;;;;;;;;23.50;56.30;;;;;;5030660;28;19936;-44
2023/05/04 13:42:32;;;;;;;;;;;23.60;54.30;;;;;;5031284;28;20446;-44
2023/05/04 13:44:58;;;;;;;;;;;23.80;56.90;;;;;;5032367;28;20026;-44
2023/05/04 13:47:25;;;;;;;;;;;23.80;54.70;;;;;;5030400;28;20470;-45
2023/05/04 13:49:52;;;;;;;;;;;23.80;55.50;;;;;;5028569;28;20336;-46
2023/05/04 13:52:18;;;;;;;;;;;23.90;56.70;;;;;;5030485;28;20357;-45
2023/05/04 13:54:45;;;;;;;;;;;23.90;53.20;;;;;;5030317;28;19982;-43
2023/05/04 13:57:13;;;;;;;;;;;23.80;52.90;;;;;;5028672;28;20371;-43
2023/05/04 13:59:39;;;;;;;;;;;23.70;52.50;;;;;;5040766;28;20017;-44
2023/05/04 14:02:06;;;;;;;;;;;23.50;52.50;;;;;;5027734;28;19975;-44
2023/05/04 14:04:33;;;;;;;;;;;23.40;54.10;;;;;;5030268;28;19937;-46
2023/05/04 14:06:59;;;;;;;;;;;23.40;55.20;;;;;;5029855;28;19940;-42
2023/05/04 14:09:26;;;;;;;;;;;23.40;54.50;;;;;;5030473;28;19961;-48
2023/05/04 14:11:53;;;;;;;;;;;23.30;57.10;;;;;;5031450;28;19980;-48
2023/05/04 14:14:21;;;;;;;;;;;23.40;55.00;;;;;;5029763;28;19931;-44
2023/05/04 14:16:50;;;;;;;;;;;23.40;55.30;;;;;;5030114;28;19941;-44
2023/05/04 14:19:16;;;;;;;;;;;23.40;55.10;;;;;;5029028;28;19936;-44
2023/05/04 14:21:43;;;;;;;;;;;23.50;53.70;;;;;;5027198;28;19975;-46
2023/05/04 14:24:10;;;;;;;;;;;23.50;53.20;;;;;;5029784;28;19937;-46